createdAt,value
2022-09-12T00:01:23.390Z,9.40
2022-09-12T00:03:55.775Z,8.43
2022-09-12T00:06:27.023Z,8.77
2022-09-12T00:08:57.509Z,9.45
2022-09-12T00:11:26.027Z,9.20
2022-09-12T00:13:57.666Z,9.43
2022-09-12T00:16:29.609Z,10.07
2022-09-12T00:18:59.266Z,10.32
2022-09-12T00:21:28.213Z,9.95
2022-09-12T00:23:56.678Z,9.48
2022-09-12T00:26:24.744Z,9.60
2022-09-12T00:28:53.247Z,8.93
2022-09-12T00:31:24.967Z,9.18
2022-09-12T00:33:55.863Z,9.32
2022-09-12T00:36:26.866Z,9.35
2022-09-12T00:38:55.621Z,8.07
2022-09-12T00:41:26.564Z,8.40
2022-09-12T00:43:57.099Z,7.95
2022-09-12T00:46:40.162Z,7.95
2022-09-12T00:49:16.000Z,8.05
2022-09-12T00:51:52.118Z,7.57
2022-09-12T00:54:31.136Z,8.52
2022-09-12T00:57:07.528Z,8.40
2022-09-12T00:59:42.462Z,6.82
2022-09-12T01:02:11.121Z,6.70
2022-09-12T01:04:43.125Z,6.65
2022-09-12T01:07:15.286Z,5.40
2022-09-12T01:09:45.174Z,6.90
2022-09-12T01:12:15.446Z,6.43
2022-09-12T01:14:43.886Z,7.75
2022-09-12T01:17:14.883Z,7.32
2022-09-12T01:20:30.249Z,6.85
2022-09-12T01:23:37.212Z,6.88
2022-09-12T01:26:38.402Z,7.32
2022-09-12T01:29:36.249Z,6.18
2022-09-12T01:32:16.608Z,6.22
2022-09-12T01:34:52.182Z,5.80
2022-09-12T01:37:34.166Z,6.53
2022-09-12T01:40:15.818Z,6.53
2022-09-12T01:42:54.643Z,5.70
2022-09-12T01:45:31.196Z,5.90
2022-09-12T01:48:06.661Z,6.35
2022-09-12T01:50:44.606Z,7.72
2022-09-12T01:53:21.197Z,7.68
2022-09-12T01:55:57.416Z,7.13
2022-09-12T01:58:34.815Z,7.97
2022-09-12T02:01:11.441Z,7.80
2022-09-12T02:03:45.803Z,7.07
2022-09-12T02:06:21.576Z,6.85
2022-09-12T02:08:53.922Z,7.47
2022-09-12T02:11:23.334Z,6.68
2022-09-12T02:13:57.295Z,6.50
2022-09-12T02:16:33.214Z,6.07
2022-09-12T02:19:11.031Z,5.93
2022-09-12T02:21:46.851Z,6.78
2022-09-12T02:24:18.310Z,6.15
2022-09-12T02:26:53.354Z,5.95
2022-09-12T02:29:21.450Z,6.60
2022-09-12T02:31:55.423Z,6.53
2022-09-12T02:34:39.833Z,6.15
2022-09-12T02:37:26.105Z,6.32
2022-09-12T02:39:55.259Z,4.97
2022-09-12T02:42:24.834Z,4.85
2022-09-12T02:44:56.668Z,4.90
2022-09-12T02:47:31.952Z,4.57
2022-09-12T02:50:01.800Z,6.35
2022-09-12T02:52:30.733Z,5.38
2022-09-12T02:55:00.450Z,5.55
2022-09-12T02:57:28.531Z,6.40
2022-09-12T03:00:01.107Z,5.85
2022-09-12T03:02:42.460Z,6.90
2022-09-12T03:05:27.746Z,5.93
2022-09-12T03:08:47.229Z,5.35
2022-09-12T03:11:49.808Z,4.72
2022-09-12T03:14:40.703Z,5.50
2022-09-12T03:17:22.682Z,5.97
2022-09-12T03:20:00.534Z,4.72
2022-09-12T03:22:37.997Z,6.20
2022-09-12T03:25:17.983Z,6.30
2022-09-12T03:27:55.161Z,5.82
2022-09-12T03:30:23.159Z,5.85
2022-09-12T03:32:54.819Z,6.15
2022-09-12T03:35:25.756Z,6.78
2022-09-12T03:37:55.174Z,7.68
2022-09-12T03:40:23.230Z,6.28
2022-09-12T03:42:51.174Z,5.63
2022-09-12T03:45:19.338Z,6.38
2022-09-12T03:47:47.301Z,6.53
2022-09-12T03:50:15.426Z,5.93
2022-09-12T03:52:43.427Z,6.47
2022-09-12T03:55:13.243Z,6.03
2022-09-12T03:57:41.365Z,5.93
2022-09-12T04:00:10.979Z,5.43
2022-09-12T04:02:39.047Z,5.57
2022-09-12T04:05:07.593Z,5.80
2022-09-12T04:07:35.683Z,5.57
2022-09-12T04:10:04.065Z,5.65
2022-09-12T04:12:35.433Z,5.43
2022-09-12T04:15:03.494Z,6.68
2022-09-12T04:17:31.481Z,5.72
2022-09-12T04:19:59.425Z,5.97
2022-09-12T04:22:27.655Z,6.40
2022-09-12T04:24:55.693Z,6.72
2022-09-12T04:27:23.600Z,6.65
2022-09-12T04:29:54.717Z,7.13
2022-09-12T04:32:22.954Z,6.65
2022-09-12T04:34:52.302Z,6.82
2022-09-12T04:37:21.140Z,6.15
2022-09-12T04:39:49.711Z,6.78
2022-09-12T04:42:18.211Z,7.07
2022-09-12T04:44:46.399Z,6.90
2022-09-12T04:47:16.759Z,6.85
2022-09-12T04:49:44.805Z,5.95
2022-09-12T04:52:12.924Z,6.20
2022-09-12T04:54:41.241Z,6.18
2022-09-12T04:57:09.388Z,6.82
2022-09-12T04:59:37.429Z,6.70
2022-09-12T05:02:05.863Z,6.43
2022-09-12T05:04:35.934Z,6.35
2022-09-12T05:07:05.798Z,6.30
2022-09-12T05:09:33.776Z,6.70
2022-09-12T05:12:05.492Z,6.82
2022-09-12T05:14:35.172Z,6.25
2022-09-12T05:17:05.985Z,6.63
2022-09-12T05:19:35.977Z,6.82
2022-09-12T05:22:04.988Z,6.47
2022-09-12T05:24:33.227Z,6.88
2022-09-12T05:27:02.259Z,6.18
2022-09-12T05:29:30.445Z,6.55
2022-09-12T05:31:58.473Z,6.53
2022-09-12T05:34:27.788Z,5.97
2022-09-12T05:36:57.174Z,6.45
2022-09-12T05:39:25.570Z,6.28
2022-09-12T05:41:54.254Z,6.30
2022-09-12T05:44:22.182Z,6.80
2022-09-12T05:46:51.307Z,6.60
2022-09-12T05:49:19.360Z,6.03
2022-09-12T05:51:47.525Z,5.40
2022-09-12T05:54:20.533Z,6.38
2022-09-12T05:56:49.230Z,5.57
2022-09-12T05:59:20.118Z,5.80
2022-09-12T06:01:49.491Z,6.18
2022-09-12T06:04:18.067Z,6.70
2022-09-12T06:06:47.368Z,6.20
2022-09-12T06:09:19.040Z,6.38
2022-09-12T06:11:47.929Z,6.18
2022-09-12T06:14:17.786Z,6.63
2022-09-12T06:16:46.234Z,6.15
2022-09-12T06:19:17.773Z,6.38
2022-09-12T06:21:46.389Z,6.25
2022-09-12T06:24:16.126Z,6.40
2022-09-12T06:26:44.454Z,6.68
2022-09-12T06:29:13.241Z,6.50
2022-09-12T06:31:43.867Z,5.95
2022-09-12T06:34:15.960Z,6.50
2022-09-12T06:36:46.505Z,6.80
2022-09-12T06:39:18.313Z,6.47
2022-09-12T06:41:47.538Z,6.28
2022-09-12T06:44:19.281Z,6.68
2022-09-12T06:46:47.826Z,6.63
2022-09-12T06:49:17.472Z,6.30
2022-09-12T06:51:45.614Z,6.15
2022-09-12T06:54:15.671Z,6.93
2022-09-12T06:56:45.993Z,6.00
2022-09-12T06:59:13.978Z,6.20
2022-09-12T07:01:42.468Z,6.47
2022-09-12T07:04:11.399Z,6.22
2022-09-12T07:06:43.946Z,6.40
2022-09-12T07:09:16.994Z,6.00
2022-09-12T07:11:48.083Z,5.97
2022-09-12T07:14:16.802Z,6.05
2022-09-12T07:16:45.117Z,6.45
2022-09-12T07:19:13.857Z,6.13
2022-09-12T07:21:42.087Z,6.28
2022-09-12T07:24:11.365Z,6.30
2022-09-12T07:26:41.997Z,6.40
2022-09-12T07:32:05.803Z,5.75
2022-09-12T07:34:34.208Z,6.15
2022-09-12T07:37:02.149Z,6.13
2022-09-12T07:39:30.193Z,5.55
2022-09-12T07:41:58.629Z,4.88
2022-09-12T07:44:28.189Z,5.55
2022-09-12T07:46:56.187Z,5.28
2022-09-12T07:49:24.197Z,5.03
2022-09-12T07:51:52.119Z,5.97
2022-09-12T07:54:20.183Z,6.28
2022-09-12T07:56:48.150Z,6.10
2022-09-12T07:59:35.302Z,5.90
2022-09-12T08:02:06.763Z,6.03
2022-09-12T08:04:36.345Z,5.88
2022-09-12T08:07:04.520Z,5.97
2022-09-12T08:09:32.654Z,5.95
2022-09-12T08:12:00.716Z,5.90
2022-09-12T08:14:29.630Z,6.45
2022-09-12T08:16:57.628Z,5.72
2022-09-12T08:19:27.063Z,5.80
2022-09-12T08:21:54.973Z,6.05
2022-09-12T08:24:23.198Z,6.45
2022-09-12T08:26:51.274Z,7.07
2022-09-12T08:29:19.789Z,6.50
2022-09-12T08:31:48.034Z,6.88
2022-09-12T08:34:17.027Z,6.88
2022-09-12T08:36:46.367Z,6.53
2022-09-12T08:39:15.325Z,6.43
2022-09-12T08:41:46.074Z,7.13
2022-09-12T08:44:37.699Z,6.70
2022-09-12T08:47:22.095Z,7.43
2022-09-12T08:50:01.961Z,6.60
2022-09-12T08:52:40.041Z,6.93
2022-09-12T08:55:33.189Z,6.15
2022-09-12T08:58:08.181Z,6.70
2022-09-12T09:00:48.287Z,7.32
2022-09-12T09:03:57.104Z,7.22
2022-09-12T09:06:53.524Z,6.93
2022-09-12T09:09:36.514Z,6.30
2022-09-12T09:12:18.683Z,6.50
2022-09-12T09:15:14.610Z,6.90
2022-09-12T09:17:46.306Z,6.70
2022-09-12T09:20:28.784Z,7.43
2022-09-12T09:23:04.444Z,7.00
2022-09-12T09:25:46.610Z,6.38
2022-09-12T09:28:21.904Z,6.60
2022-09-12T09:30:50.986Z,7.43
2022-09-12T09:33:24.139Z,7.55
2022-09-12T09:36:06.328Z,6.97
2022-09-12T09:38:49.410Z,7.68
2022-09-12T09:41:48.667Z,7.25
2022-09-12T09:44:17.803Z,6.72
2022-09-12T09:46:45.879Z,6.55
2022-09-12T09:49:16.452Z,7.80
2022-09-12T09:51:44.839Z,8.05
2022-09-12T09:54:24.244Z,7.55
2022-09-12T09:56:53.866Z,7.13
2022-09-12T09:59:28.853Z,6.95
2022-09-12T10:02:03.553Z,6.53
2022-09-12T10:04:40.600Z,6.88
2022-09-12T10:07:21.085Z,6.80
2022-09-12T10:10:15.359Z,6.45
2022-09-12T10:12:45.394Z,6.65
2022-09-12T10:15:21.392Z,6.25
2022-09-12T10:17:52.518Z,6.93
2022-09-12T10:20:36.068Z,7.13
2022-09-12T10:23:34.801Z,6.80
2022-09-12T10:26:10.438Z,7.03
2022-09-12T10:28:44.431Z,6.90
2022-09-12T10:31:29.113Z,6.80
2022-09-12T10:34:00.835Z,6.50
2022-09-12T10:36:38.849Z,6.63
2022-09-12T10:39:08.311Z,6.93
2022-09-12T10:41:38.882Z,6.70
2022-09-12T10:44:16.990Z,6.93
2022-09-12T10:46:45.689Z,6.70
2022-09-12T10:49:26.585Z,6.90
2022-09-12T10:51:56.777Z,6.95
2022-09-12T10:54:28.959Z,5.75
2022-09-12T10:57:51.774Z,5.88
2022-09-12T11:00:27.877Z,5.80
2022-09-12T11:03:17.311Z,5.75
2022-09-12T11:05:57.648Z,5.80
2022-09-12T11:08:48.507Z,5.40
2022-09-12T11:11:40.140Z,5.10
2022-09-12T11:14:34.309Z,5.30
2022-09-12T11:17:17.569Z,6.07
2022-09-12T11:20:49.229Z,5.85
2022-09-12T11:23:48.358Z,5.78
2022-09-12T11:26:42.439Z,4.88
2022-09-12T11:29:22.202Z,4.95
2022-09-12T11:32:13.783Z,5.13
2022-09-12T11:34:58.189Z,5.00
2022-09-12T11:37:55.507Z,4.65
2022-09-12T11:40:33.826Z,5.28
2022-09-12T11:43:08.383Z,5.05
2022-09-12T11:45:45.575Z,4.32
2022-09-12T11:48:28.432Z,4.18
2022-09-12T11:50:57.819Z,3.50
2022-09-12T11:53:37.088Z,3.47
2022-09-12T11:56:15.310Z,3.42
2022-09-12T11:58:47.720Z,4.38
2022-09-12T12:01:23.020Z,4.28
2022-09-12T12:03:55.437Z,3.60
2022-09-12T12:06:33.203Z,3.50
2022-09-12T12:09:01.337Z,3.38
2022-09-12T12:11:35.328Z,2.90
2022-09-12T12:14:08.769Z,2.55
2022-09-12T12:16:40.527Z,3.03
2022-09-12T12:19:32.519Z,2.63
2022-09-12T12:22:13.801Z,2.80
2022-09-12T12:25:09.196Z,2.55
2022-09-12T12:27:55.148Z,2.42
2022-09-12T12:31:03.148Z,2.40
2022-09-12T12:34:02.846Z,2.90
2022-09-12T12:36:40.397Z,2.50
2022-09-12T12:40:03.927Z,2.75
2022-09-12T12:43:32.212Z,2.90
2022-09-12T12:46:16.041Z,2.10
2022-09-12T12:49:23.424Z,2.30
2022-09-12T12:52:03.040Z,2.53
2022-09-12T12:54:54.808Z,2.45
2022-09-12T12:57:48.490Z,2.80
2022-09-12T13:00:32.201Z,2.47
2022-09-12T13:03:11.036Z,2.50
2022-09-12T13:05:47.637Z,2.63
2022-09-12T13:08:32.296Z,2.40
2022-09-12T13:11:08.544Z,2.38
2022-09-12T13:13:42.685Z,2.28
2022-09-12T13:16:12.476Z,2.78
2022-09-12T13:18:46.513Z,2.25
2022-09-12T13:21:17.300Z,2.63
2022-09-12T13:24:01.075Z,2.10
2022-09-12T13:26:33.622Z,2.67
2022-09-12T13:29:12.719Z,2.20
2022-09-12T13:31:47.465Z,2.58
2022-09-12T13:34:23.179Z,2.33
2022-09-12T13:37:23.860Z,2.50
2022-09-12T13:40:05.623Z,2.13
2022-09-12T13:42:42.499Z,2.38
2022-09-12T13:45:21.906Z,2.10
2022-09-12T13:47:58.534Z,2.22
2022-09-12T13:50:31.769Z,2.50
2022-09-12T13:53:06.823Z,2.03
2022-09-12T13:55:41.540Z,2.22
2022-09-12T13:58:21.534Z,2.28
2022-09-12T14:01:03.119Z,2.10
2022-09-12T14:03:54.683Z,2.10
2022-09-12T14:06:27.583Z,2.38
2022-09-12T14:09:00.189Z,2.25
2022-09-12T14:11:33.759Z,2.00
2022-09-12T14:14:07.466Z,2.28
2022-09-12T14:16:41.379Z,2.28
2022-09-12T14:19:12.155Z,2.25
2022-09-12T14:21:40.731Z,2.30
2022-09-12T14:24:13.868Z,2.25
2022-09-12T14:26:45.413Z,2.40
2022-09-12T14:29:17.753Z,2.13
2022-09-12T14:32:24.177Z,2.20
2022-09-12T14:35:19.731Z,2.08
2022-09-12T14:37:52.379Z,2.28
2022-09-12T14:40:23.514Z,2.45
2022-09-12T14:42:56.966Z,2.28
2022-09-12T14:45:33.280Z,2.63
2022-09-12T14:48:01.392Z,2.55
2022-09-12T14:50:37.160Z,2.60
2022-09-12T14:53:08.292Z,2.55
2022-09-12T14:55:46.296Z,2.40
2022-09-12T14:58:28.126Z,2.38
2022-09-12T15:01:03.764Z,2.53
2022-09-12T15:03:35.843Z,2.50
2022-09-12T15:06:07.885Z,2.30
2022-09-12T15:08:36.320Z,2.40
2022-09-12T15:11:07.937Z,2.28
2022-09-12T15:13:43.228Z,2.33
2022-09-12T15:16:13.226Z,2.38
2022-09-12T15:18:41.319Z,2.10
2022-09-12T15:21:14.994Z,2.25
2022-09-12T15:23:46.803Z,2.25
2022-09-12T15:26:17.772Z,2.30
2022-09-12T15:28:47.687Z,2.13
2022-09-12T15:31:26.020Z,2.30
2022-09-12T15:33:55.691Z,2.72
2022-09-12T15:36:27.501Z,2.50
2022-09-12T15:38:55.663Z,2.03
2022-09-12T15:41:32.592Z,2.33
2022-09-12T15:44:02.345Z,2.45
2022-09-12T15:46:30.879Z,2.30
2022-09-12T15:48:59.046Z,2.28
2022-09-12T15:51:27.663Z,2.33
2022-09-12T15:53:56.231Z,2.00
2022-09-12T15:56:24.533Z,2.55
2022-09-12T15:58:59.374Z,1.77
2022-09-12T16:01:30.266Z,2.13
2022-09-12T16:03:59.041Z,2.22
2022-09-12T16:06:27.802Z,2.10
2022-09-12T16:08:56.155Z,2.30
2022-09-12T16:11:27.877Z,2.00
2022-09-12T16:13:58.050Z,2.13
2022-09-12T16:16:26.195Z,2.05
2022-09-12T16:18:55.683Z,2.10
2022-09-12T16:21:56.764Z,1.98
2022-09-12T16:24:42.775Z,1.90
2022-09-12T16:27:10.987Z,2.10
2022-09-12T16:29:39.454Z,2.10
2022-09-12T16:32:07.940Z,1.92
2022-09-12T16:34:39.962Z,1.90
2022-09-12T16:37:08.021Z,2.30
2022-09-12T16:39:36.264Z,2.10
2022-09-12T16:42:05.139Z,1.88
2022-09-12T16:44:33.185Z,2.10
2022-09-12T16:47:01.196Z,2.10
2022-09-12T16:49:32.343Z,2.35
2022-09-12T16:52:01.923Z,2.20
2022-09-12T16:54:30.257Z,1.90
2022-09-12T16:57:00.547Z,2.08
2022-09-12T16:59:28.550Z,1.98
2022-09-12T17:01:56.564Z,2.25
2022-09-12T17:04:24.575Z,2.55
2022-09-12T17:06:52.585Z,2.15
2022-09-12T17:09:22.387Z,2.00
2022-09-12T17:11:50.448Z,1.95
2022-09-12T17:14:18.454Z,2.17
2022-09-12T17:16:51.669Z,1.95
2022-09-12T17:19:22.867Z,2.13
2022-09-12T17:21:50.994Z,2.25
2022-09-12T17:24:21.147Z,2.20
2022-09-12T17:26:49.276Z,2.13
2022-09-12T17:29:17.974Z,2.17
2022-09-12T17:31:46.779Z,2.17
2022-09-12T17:34:16.393Z,2.63
2022-09-12T17:36:45.603Z,2.22
2022-09-12T17:39:15.042Z,2.70
2022-09-12T17:41:45.928Z,2.42
2022-09-12T17:44:15.965Z,2.17
2022-09-12T17:46:44.383Z,2.42
2022-09-12T17:49:15.821Z,2.25
2022-09-12T17:51:45.317Z,2.20
2022-09-12T17:54:16.813Z,2.20
2022-09-12T17:56:49.630Z,2.13
2022-09-12T17:59:21.326Z,1.98
2022-09-12T18:02:18.894Z,2.20
2022-09-12T18:04:48.366Z,2.42
2022-09-12T18:07:18.858Z,2.13
2022-09-12T18:09:47.660Z,2.58
2022-09-12T18:12:19.939Z,2.30
2022-09-12T18:14:47.946Z,2.20
2022-09-12T18:17:16.035Z,2.20
2022-09-12T18:19:44.394Z,2.28
2022-09-12T18:22:12.850Z,2.67
2022-09-12T18:24:41.243Z,2.95
2022-09-12T18:27:09.234Z,2.88
2022-09-12T18:29:38.531Z,2.63
2022-09-12T18:32:07.829Z,2.67
2022-09-12T18:34:36.186Z,2.25
2022-09-12T18:37:05.235Z,2.33
2022-09-12T18:39:33.214Z,2.22
2022-09-12T18:42:01.167Z,2.25
2022-09-12T18:44:29.209Z,2.60
2022-09-12T18:46:58.563Z,2.60
2022-09-12T18:49:26.642Z,2.30
2022-09-12T18:51:54.662Z,2.22
2022-09-12T18:54:22.682Z,2.40
2022-09-12T18:56:50.648Z,2.55
2022-09-12T18:59:18.805Z,2.22
2022-09-12T19:01:47.189Z,2.63
2022-09-12T19:04:16.895Z,2.30
2022-09-12T19:06:48.262Z,2.47
2022-09-12T19:09:20.506Z,2.75
2022-09-12T19:11:52.555Z,2.90
2022-09-12T19:14:23.685Z,2.55
2022-09-12T19:16:53.072Z,2.92
2022-09-12T19:19:23.404Z,2.95
2022-09-12T19:21:51.476Z,2.95
2022-09-12T19:24:21.581Z,3.50
2022-09-12T19:26:50.679Z,2.90
2022-09-12T19:29:18.908Z,3.05
2022-09-12T19:31:47.374Z,2.90
2022-09-12T19:34:16.365Z,3.30
2022-09-12T19:36:47.316Z,3.08
2022-09-12T19:39:17.165Z,2.97
2022-09-12T19:41:45.862Z,3.13
2022-09-12T19:44:14.111Z,2.95
2022-09-12T19:46:42.318Z,3.08
2022-09-12T19:49:12.755Z,3.17
2022-09-12T19:51:41.529Z,2.72
2022-09-12T19:54:11.306Z,3.03
2022-09-12T19:56:39.376Z,3.15
2022-09-12T19:59:07.467Z,3.05
2022-09-12T20:01:37.037Z,3.13
2022-09-12T20:04:06.564Z,2.95
2022-09-12T20:06:34.870Z,3.25
2022-09-12T20:09:03.154Z,3.15
2022-09-12T20:11:32.512Z,3.20
2022-09-12T20:14:00.765Z,2.90
2022-09-12T20:16:30.046Z,3.17
2022-09-12T20:19:00.869Z,3.30
2022-09-12T20:21:35.825Z,3.40
2022-09-12T20:24:07.082Z,2.95
2022-09-12T20:26:37.004Z,3.90
2022-09-12T20:29:06.556Z,3.22
2022-09-12T20:31:36.336Z,3.25
2022-09-12T20:34:06.075Z,3.15
2022-09-12T20:36:34.898Z,3.05
2022-09-12T20:39:03.102Z,3.47
2022-09-12T20:41:34.095Z,3.50
2022-09-12T20:44:04.083Z,3.88
2022-09-12T20:46:33.004Z,3.60
2022-09-12T20:49:01.244Z,3.30
2022-09-12T20:51:30.363Z,4.07
2022-09-12T20:54:00.258Z,3.72
2022-09-12T20:56:30.940Z,3.78
2022-09-12T20:58:59.728Z,3.40
2022-09-12T21:01:31.237Z,3.63
2022-09-12T21:04:01.464Z,3.40
2022-09-12T21:06:29.990Z,3.63
2022-09-12T21:09:00.400Z,3.25
2022-09-12T21:11:29.428Z,3.20
2022-09-12T21:13:58.046Z,3.15
2022-09-12T21:16:28.002Z,3.33
2022-09-12T21:18:58.708Z,3.75
2022-09-12T21:21:27.469Z,3.20
2022-09-12T21:23:59.596Z,3.50
2022-09-12T21:26:28.299Z,3.38
2022-09-12T21:28:56.915Z,3.40
2022-09-12T21:31:26.555Z,3.60
2022-09-12T21:33:55.964Z,3.28
2022-09-12T21:36:25.414Z,3.05
2022-09-12T21:38:53.374Z,3.08
2022-09-12T21:41:21.464Z,3.20
2022-09-12T21:43:49.797Z,3.25
2022-09-12T21:46:18.479Z,3.38
2022-09-12T21:48:46.466Z,3.13
2022-09-12T21:51:15.849Z,3.63
2022-09-12T21:53:44.257Z,3.28
2022-09-12T21:56:12.233Z,2.88
2022-09-12T21:58:40.290Z,3.38
2022-09-12T22:01:09.391Z,3.97
2022-09-12T22:03:37.599Z,3.38
2022-09-12T22:06:07.736Z,3.47
2022-09-12T22:08:38.801Z,3.45
2022-09-12T22:11:09.573Z,3.45
2022-09-12T22:13:39.289Z,3.60
2022-09-12T22:16:08.525Z,3.75
2022-09-12T22:18:38.055Z,3.30
2022-09-12T22:21:12.288Z,3.78
2022-09-12T22:23:59.546Z,3.67
2022-09-12T22:26:29.159Z,3.65
2022-09-12T22:28:57.459Z,3.63
2022-09-12T22:31:26.909Z,3.47
2022-09-12T22:33:57.269Z,3.85
2022-09-12T22:36:29.215Z,3.67
2022-09-12T22:39:01.010Z,4.20
2022-09-12T22:41:29.103Z,4.03
2022-09-12T22:43:58.297Z,3.67
2022-09-12T22:46:27.396Z,3.50
2022-09-12T22:48:55.875Z,4.00
2022-09-12T22:51:23.987Z,3.38
2022-09-12T22:53:52.369Z,3.85
2022-09-12T22:56:22.459Z,4.45
2022-09-12T22:58:50.761Z,4.10
2022-09-12T23:01:19.077Z,4.10
2022-09-12T23:03:47.228Z,3.92
2022-09-12T23:06:15.301Z,3.53
2022-09-12T23:08:44.317Z,4.30
2022-09-12T23:11:15.965Z,4.30
2022-09-12T23:13:48.595Z,4.22
2022-09-12T23:16:20.050Z,4.13
2022-09-12T23:18:49.051Z,4.00
2022-09-12T23:21:19.985Z,4.00
2022-09-12T23:23:48.467Z,4.05
2022-09-12T23:26:19.926Z,4.25
2022-09-12T23:28:54.747Z,3.72
2022-09-12T23:31:24.802Z,3.65
2022-09-12T23:33:54.560Z,4.35
2022-09-12T23:36:23.783Z,3.90
2022-09-12T23:38:53.345Z,4.13
2022-09-12T23:41:23.345Z,4.00
2022-09-12T23:43:52.876Z,4.55
2022-09-12T23:46:22.399Z,4.55
2022-09-12T23:48:50.587Z,4.22
2022-09-12T23:51:18.765Z,3.75
2022-09-12T23:53:46.786Z,4.55
2022-09-12T23:56:14.763Z,3.70
2022-09-12T23:58:43.173Z,3.90
